Latest Weather Observations for Woolshed

IDQ60801

Issued at 2:35 pm EST Friday 31 October 2014 (issued every 30 minutes, with the page automatically refreshed every 10 minutes)

About weather observations | Map of weather stations | Latest weather observations for QLD | Other Formats
Station Details ID: 033307 Name: WOOLSHED Lat: -19.42 Lon: 146.54 Height: 556.04 m
Data from the previous 72 hours. | See also: Recent months at Woolshed
Date/Time
EST
Temp
°C
App
Temp
°C
Dew
Point
Rel
Hum
%
Delta-T
°C
Wind Press
QNH
hPa
Press
MSL
hPa
Rain
since 9 am
mm
Dir
 
Spd
km/h
Gust
km/h
Spd
kts
Gust
kts
31/02:30pm 27.0 27.0 16.3 52 6.8 NNE 11 22 6 12 1014.6 1011.6 0.0
31/02:00pm 27.5 27.8 17.1 53 6.7 NE 11 22 6 12 1014.8 1011.8 0.0
31/01:30pm 26.4 26.2 16.6 55 6.2 NE 13 24 7 13 1015.2 1012.2 0.0
31/01:00pm 26.6 26.4 16.8 55 6.2 NE 13 26 7 14 1015.5 1012.5 0.0
31/12:30pm 26.3 26.8 17.4 58 5.7 NNE 11 30 6 16 1016.1 1013.2 0.0
31/12:00pm 25.5 25.0 16.9 59 5.4 NNE 15 28 8 15 1016.6 1013.6 0.0
31/11:30am 25.7 25.4 17.4 60 5.3 NNE 15 24 8 13 1017.0 1014.0 0.0
31/11:00am 25.5 25.4 16.9 59 5.4 NE 13 26 7 14 1017.4 1014.4 0.0
31/10:30am 24.8 24.7 17.0 62 4.9 NE 13 20 7 11 1017.7 1014.7 0.0
31/10:00am 25.0 25.2 17.7 64 4.7 NE 13 24 7 13 1017.9 1015.0 0.0
31/09:30am 23.7 24.4 17.9 70 3.7 ENE 11 19 6 10 1018.2 1015.2 0.0
31/09:00am 23.9 24.4 18.3 71 3.6 NNE 13 20 7 11 1018.0 1015.1 0.0
31/08:30am 22.4 23.0 17.8 75 2.9 NNE 11 24 6 13 1017.4 1014.4 0.0
31/08:00am 21.5 21.6 19.2 87 1.5 NE 17 26 9 14 1017.0 1014.0 0.0
31/07:30am 20.3 21.1 19.1 93 0.8 NE 13 22 7 12 1016.8 1013.8 0.0
31/07:00am 20.2 21.5 19.4 95 0.5 NE 11 20 6 11 1016.5 1013.5 0.0
31/06:30am 19.5 20.8 19.2 98 0.2 NNE 11 22 6 12 1016.0 1013.0 0.0
31/06:00am 19.1 20.2 18.8 98 0.2 NE 11 22 6 12 1015.7 1012.7 0.0
31/05:30am 18.9 19.5 18.6 98 0.2 NE 13 22 7 12 1015.6 1012.6 0.0
31/05:00am 19.1 19.8 18.8 98 0.2 NE 13 24 7 13 1015.3 1012.3 0.0
31/04:30am 19.2 20.3 18.9 98 0.2 NE 11 20 6 11 1015.2 1012.2 0.0
31/04:00am 19.1 19.8 18.9 99 0.1 NE 13 22 7 12 1015.0 1012.0 0.0
31/03:30am 19.3 19.8 19.3 100 0.0 NE 15 32 8 17 1014.8 1011.8 0.0
31/03:00am 19.3 19.8 19.3 100 0.0 NE 15 26 8 14 1014.7 1011.7 0.0
31/02:30am 19.2 20.1 19.2 100 0.0 NNE 13 26 7 14 1014.6 1011.6 0.0
31/02:00am 19.4 20.0 19.4 100 0.0 NNE 15 24 8 13 1014.6 1011.6 0.0
31/01:30am 19.3 20.2 19.3 100 0.0 NE 13 28 7 15 1014.8 1011.8 0.0
31/01:00am 19.3 20.1 19.1 99 0.1 NE 13 24 7 13 1015.2 1012.2 0.0
31/12:30am 19.4 20.6 19.1 98 0.2 NE 11 20 6 11 1015.6 1012.6 0.0
31/12:00am 19.6 20.1 19.3 98 0.2 NE 15 24 8 13 1015.9 1012.9 0.0
 
Date/Time
EST
Temp
°C
App
Temp
°C
Dew
Point
Rel
Hum
%
Delta-T
°C
Wind Press
QNH
hPa
Press
MSL
hPa
Rain
since 9 am
mm
Dir
 
Spd
km/h
Gust
km/h
Spd
kts
Gust
kts
30/11:30pm 19.7 20.6 19.2 97 0.3 NE 13 22 7 12 1016.4 1013.4 0.0
30/11:00pm 19.7 20.7 19.4 98 0.2 NE 13 24 7 13 1016.6 1013.6 0.0
30/10:30pm 19.8 21.1 19.3 97 0.3 NE 11 19 6 10 1016.6 1013.6 0.0
30/10:00pm 19.7 20.6 19.2 97 0.3 NE 13 20 7 11 1016.5 1013.5 0.0
30/09:30pm 19.6 20.5 19.3 98 0.2 NE 13 24 7 13 1016.5 1013.5 0.0
30/09:00pm 19.7 21.0 19.2 97 0.3 NE 11 19 6 10 1016.3 1013.3 0.0
30/08:30pm 19.9 20.9 19.4 97 0.3 NNE 13 20 7 11 1015.9 1012.9 0.0
30/08:00pm 19.8 20.6 19.1 96 0.4 NNE 13 22 7 12 1015.9 1012.9 0.0
30/07:30pm 19.8 21.2 18.6 93 0.8 NNE 9 20 5 11 1015.6 1012.6 0.0
30/07:00pm 20.3 21.1 18.1 87 1.4 NNE 11 19 6 10 1015.5 1012.5 0.0
30/06:30pm 20.9 21.6 17.9 83 1.9 NE 11 17 6 9 1015.2 1012.2 0.0
30/06:00pm 21.9 22.1 16.8 73 3.2 NNE 11 20 6 11 1014.9 1011.9 0.0
30/05:30pm 22.9 22.7 16.7 68 3.9 NNE 13 24 7 13 1014.5 1011.4 0.0
30/05:00pm 23.8 23.6 16.6 64 4.5 NNE 13 26 7 14 1014.1 1011.1 0.0
30/04:30pm 24.8 24.6 16.8 61 5.0 NE 13 28 7 15 1014.2 1011.2 0.0
30/04:00pm 25.3 25.0 16.4 57 5.6 NE 13 28 7 15 1014.1 1011.1 0.0
30/03:30pm 25.6 25.4 17.5 61 5.2 NNE 15 28 8 15 1014.0 1011.0 0.0
30/03:00pm 26.4 26.4 18.0 60 5.4 NNE 15 26 8 14 1014.2 1011.2 0.0
30/02:30pm 26.0 25.6 17.1 58 5.7 NNE 15 28 8 15 1014.5 1011.4 0.0
30/02:00pm 25.9 25.2 16.5 56 5.9 NE 15 28 8 15 1014.7 1011.7 0.0
30/01:30pm 25.9 24.9 16.7 57 5.8 N 17 30 9 16 1014.7 1011.7 0.0
30/01:00pm 25.9 25.2 17.3 59 5.5 NE 17 28 9 15 1015.2 1012.2 0.0
30/12:30pm 26.5 26.4 17.8 58 5.6 NNE 15 35 8 19 1015.6 1012.6 0.0
30/12:00pm 26.9 26.7 17.7 57 5.9 NE 15 26 8 14 1016.1 1013.2 0.0
30/11:30am 26.8 26.6 16.7 54 6.4 NNE 13 26 7 14 1016.7 1013.7 0.0
30/11:00am 26.0 25.7 17.4 59 5.5 NNE 15 30 8 16 1016.9 1013.9 0.0
30/10:30am 25.7 25.0 16.3 56 5.9 NNE 15 26 8 14 1017.1 1014.1 0.0
30/10:00am 25.6 26.0 17.3 60 5.3 NNE 11 26 6 14 1017.4 1014.4 0.0
30/09:30am 24.2 24.3 17.4 65 4.3 NNE 13 22 7 12 1017.5 1014.5 0.0
30/09:00am 23.5 23.9 17.3 68 3.9 N 11 20 6 11 1017.5 1014.5 -
30/08:30am 22.4 24.1 19.4 83 2.0 N 9 19 5 10 1017.5 1014.5 -
30/08:00am 20.5 22.1 18.3 87 1.4 N 7 17 4 9 1017.6 1014.6 -
30/07:30am 19.9 21.7 18.4 91 1.0 E 6 13 3 7 1017.7 1014.7 -
30/07:00am 19.8 21.0 18.3 91 1.0 SE 9 22 5 12 1017.9 1015.0 -
30/06:30am 19.7 21.6 19.0 96 0.4 ESE 7 15 4 8 1017.6 1014.6 -
30/06:00am 19.0 21.5 19.0 100 0.0 SE 4 11 2 6 1017.4 1014.4 -
30/05:30am 18.8 22.0 18.8 100 0.0 CALM 0 2 0 1 1017.3 1014.3 -
30/05:00am 19.1 22.4 19.1 100 0.0 CALM 0 0 0 0 1017.1 1014.1 -
30/04:30am 19.5 21.7 19.5 100 0.0 ENE 7 17 4 9 1016.1 1013.2 -
30/04:00am 19.4 21.5 19.4 100 0.0 NNE 7 19 4 10 1014.9 1011.9 -
30/03:30am 19.6 21.4 19.6 100 0.0 NNE 9 24 5 13 1014.8 1011.8 -
30/03:00am 19.6 21.0 19.6 100 0.0 N 11 19 6 10 1014.8 1011.8 0.0
30/02:30am 19.5 20.9 19.5 100 0.0 NNE 11 20 6 11 1014.8 1011.8 -
30/02:00am 19.5 20.9 19.5 100 0.0 NNE 11 20 6 11 1014.8 1011.8 -
30/01:30am 19.6 21.0 19.6 100 0.0 NNE 11 22 6 12 1014.8 1011.8 -
30/01:00am 19.7 20.8 19.7 100 0.0 NNE 13 26 7 14 1015.1 1012.1 -
30/12:30am 19.7 20.3 19.5 99 0.1 NNE 15 28 8 15 1015.3 1012.3 -
30/12:00am 19.8 21.0 19.8 100 0.0 NNE 13 20 7 11 1015.4 1012.4 -
 
Date/Time
EST
Temp
°C
App
Temp
°C
Dew
Point
Rel
Hum
%
Delta-T
°C
Wind Press
QNH
hPa
Press
MSL
hPa
Rain
since 9 am
mm
Dir
 
Spd
km/h
Gust
km/h
Spd
kts
Gust
kts
29/11:30pm 19.9 21.5 19.9 100 0.0 NNE 11 19 6 10 1015.6 1012.6 -
29/11:00pm 19.9 21.5 19.9 100 0.0 NNE 11 24 6 13 1015.7 1012.7 -
29/10:30pm 20.1 21.4 20.1 100 0.0 NNE 13 22 7 12 1016.0 1013.0 -
29/10:00pm 20.1 20.9 19.9 99 0.1 NNE 15 28 8 15 1016.0 1013.0 -
29/09:30pm 20.1 20.9 19.9 99 0.1 NNE 15 26 8 14 1016.1 1013.2 -
29/09:00pm 20.1 20.9 19.9 99 0.1 NNE 15 26 8 14 1015.9 1012.9 0.0
29/08:30pm 20.1 20.9 19.8 98 0.2 NNE 15 24 8 13 1015.7 1012.7 -
29/08:00pm 20.1 20.9 19.8 98 0.2 NNE 15 24 8 13 1015.7 1012.7 -
29/07:30pm 20.0 21.4 19.5 97 0.3 NE 11 20 6 11 1015.4 1012.4 -
29/07:00pm 20.3 22.0 19.3 94 0.6 NNE 9 19 5 10 1015.3 1012.3 -
29/06:30pm 20.8 22.0 19.1 90 1.1 NNE 11 19 6 10 1015.1 1012.1 -
29/06:00pm 21.6 22.8 19.0 85 1.7 NE 11 19 6 10 1014.9 1011.9 -
29/05:30pm 22.7 24.2 18.9 79 2.5 NNE 9 15 5 8 1014.7 1011.7 -
29/05:00pm 23.4 24.4 18.7 75 3.0 NNE 11 24 6 13 1014.5 1011.4 -
29/04:30pm 24.8 25.6 19.0 70 3.8 NNE 13 22 7 12 1014.4 1011.3 -
29/04:00pm 25.7 26.9 19.1 67 4.3 NNE 11 19 6 10 1014.5 1011.4 -
29/03:30pm 26.3 27.0 18.9 63 4.8 NNE 13 22 7 12 1014.6 1011.6 -
29/03:00pm 26.3 26.3 18.2 61 5.2 NNE 15 28 8 15 1014.8 1011.8 -
29/02:30pm 27.1 27.8 18.9 61 5.4 NNE 13 20 7 11 1014.9 1011.9 -
29/02:00pm 27.2 27.3 17.4 55 6.3 NNE 13 22 7 12 1015.2 1012.2 -
29/01:30pm 28.2 28.2 18.0 54 6.6 NNE 15 24 8 13 1015.2 1012.2 -
29/01:00pm 27.7 27.8 17.5 53 6.6 NNE 13 26 7 14 1015.5 1012.5 -
29/12:30pm 27.1 26.3 16.1 51 6.9 NNE 15 24 8 13 1015.8 1012.8 -
29/12:00pm 28.2 27.7 14.8 44 8.3 NNE 11 26 6 14 1016.3 1013.3 -
29/11:30am 27.9 28.2 17.1 51 6.9 NE 11 22 6 12 1016.5 1013.5 0.0
29/11:00am 27.8 28.7 16.7 50 7.1 NE 7 15 4 8 1016.9 1013.9 0.0
29/10:30am 25.9 26.7 15.9 54 6.2 NE 6 15 3 8 1017.3 1014.3 0.0
29/09:30am 24.5 25.8 17.0 63 4.7 NNE 6 11 3 6 1017.5 1014.5 0.0
29/09:00am 23.7 25.4 18.4 72 3.4 NE 7 15 4 8 1017.3 1014.3 0.0
29/08:30am 23.1 24.4 18.4 75 3.0 NNE 9 13 5 7 1017.4 1014.4 0.0
29/08:00am 22.2 24.0 18.2 78 2.6 N 6 11 3 6 1017.4 1014.4 0.0
29/07:30am 21.2 23.0 18.2 83 1.9 ENE 6 11 3 6 1017.3 1014.3 0.0
29/07:00am 20.1 22.8 18.6 91 1.0 NE 2 6 1 3 1017.0 1014.0 0.0
29/06:30am 18.9 22.1 18.9 100 0.0 CALM 0 0 0 0 1017.0 1014.0 0.0
29/06:00am 18.7 21.1 18.7 100 0.0 S 4 7 2 4 1016.6 1013.6 0.0
29/05:30am 18.4 19.3 18.4 100 0.0 NE 11 17 6 9 1014.9 1011.9 0.0
29/05:00am 18.4 19.7 18.4 100 0.0 NE 9 17 5 9 1014.2 1011.2 0.0
29/04:30am 18.4 19.7 18.4 100 0.0 NNE 9 15 5 8 1014.2 1011.2 0.0
29/04:00am 18.4 19.3 18.4 100 0.0 NNE 11 19 6 10 1014.1 1011.1 0.0
29/03:30am 18.6 20.0 18.6 100 0.0 NNE 9 22 5 12 1014.2 1011.2 0.0
29/03:00am 18.7 19.3 18.7 100 0.0 NNE 13 20 7 11 1014.4 1011.3 0.0
29/02:30am 18.8 20.3 18.8 100 0.0 NNE 9 19 5 10 1014.4 1011.3 0.0
29/02:00am 18.8 20.3 18.8 100 0.0 NNE 9 17 5 9 1014.5 1011.4 0.0
29/01:30am 18.8 20.3 18.8 100 0.0 NNE 9 15 5 8 1014.6 1011.6 0.0
29/01:00am 18.9 20.0 18.9 100 0.0 NNE 11 22 6 12 1014.7 1011.7 0.0
29/12:30am 18.9 19.6 18.9 100 0.0 NNE 13 26 7 14 1014.9 1011.9 0.0
29/12:00am 19.0 19.3 18.8 99 0.1 NNE 15 22 8 12 1015.1 1012.1 0.0
 
Date/Time
EST
Temp
°C
App
Temp
°C
Dew
Point
Rel
Hum
%
Delta-T
°C
Wind Press
QNH
hPa
Press
MSL
hPa
Rain
since 9 am
mm
Dir
 
Spd
km/h
Gust
km/h
Spd
kts
Gust
kts
28/11:30pm 19.2 20.7 18.9 98 0.2 NNE 9 19 5 10 1015.5 1012.5 0.0
28/11:00pm 19.5 20.8 19.2 98 0.2 NNE 11 19 6 10 1016.1 1013.2 0.0
28/10:30pm 19.5 20.8 19.2 98 0.2 NNE 11 19 6 10 1016.3 1013.3 0.0
28/10:00pm 19.4 21.0 19.2 99 0.1 NNE 9 17 5 9 1016.4 1013.4 0.0
28/09:30pm 19.2 20.7 19.0 99 0.1 NNE 9 17 5 9 1016.4 1013.4 0.0
28/09:00pm 19.1 20.6 18.8 98 0.2 NE 9 13 5 7 1016.4 1013.4 0.0
28/08:30pm 19.0 20.3 18.5 97 0.3 NNE 9 17 5 9 1016.0 1013.0 0.0
28/08:00pm 19.0 20.6 18.3 96 0.4 NNE 7 15 4 8 1016.0 1013.0 0.0
28/07:30pm 19.4 20.4 18.6 95 0.5 NE 11 19 6 10 1015.9 1012.9 0.0
28/07:00pm 19.9 20.9 18.7 93 0.8 NNE 11 17 6 9 1015.7 1012.7 0.0
28/06:30pm 20.5 21.5 18.6 89 1.2 NNE 11 19 6 10 1015.5 1012.5 0.0
28/06:00pm 21.5 22.6 18.1 81 2.2 NE 9 19 5 10 1015.2 1012.2 0.0
28/05:30pm 22.6 23.2 17.7 74 3.1 NNE 11 20 6 11 1015.0 1012.0 0.0
28/05:00pm 23.9 24.2 16.9 65 4.4 NNE 11 20 6 11 1014.9 1011.9 0.0
28/04:30pm 24.8 24.4 16.2 58 5.4 NNE 13 24 7 13 1014.8 1011.8 0.0
28/04:00pm 25.6 25.2 16.2 56 5.9 NNE 13 24 7 13 1014.7 1011.7 0.0
28/03:30pm 26.6 26.5 15.9 51 6.7 NNE 11 20 6 11 1014.8 1011.8 0.0
28/03:00pm 26.9 25.5 14.6 46 7.6 NE 15 22 8 12 1014.8 1011.8 0.0

Other Formats:

Comma delimited format used in spreadsheet applications
http://www.bom.gov.au/fwo/IDQ60801/IDQ60801.95293.axf

JavaScript Object Notation format (JSON) in row-major order
http://www.bom.gov.au/fwo/IDQ60801/IDQ60801.95293.json